createdAt,value
2024-02-03T00:00:45.842Z,20.00
2024-02-03T00:03:13.003Z,19.45
2024-02-03T00:05:41.574Z,18.25
2024-02-03T00:08:08.698Z,19.20
2024-02-03T00:10:35.766Z,19.75
2024-02-03T00:13:02.698Z,18.77
2024-02-03T00:15:30.217Z,19.88
2024-02-03T00:17:57.546Z,20.48
2024-02-03T00:20:24.599Z,20.77
2024-02-03T00:22:52.934Z,20.52
2024-02-03T00:25:20.733Z,19.40
2024-02-03T00:27:48.937Z,19.90
2024-02-03T00:30:16.227Z,19.92
2024-02-03T00:32:43.390Z,21.98
2024-02-03T00:35:12.418Z,21.40
2024-02-03T00:37:39.459Z,20.65
2024-02-03T00:40:07.443Z,21.25
2024-02-03T00:42:34.474Z,21.27
2024-02-03T00:45:01.479Z,22.90
2024-02-03T00:47:28.586Z,22.33
2024-02-03T00:49:55.818Z,24.00
2024-02-03T00:52:23.210Z,23.17
2024-02-03T00:54:50.275Z,23.58
2024-02-03T00:57:17.258Z,24.42
2024-02-03T00:59:44.300Z,22.50
2024-02-03T01:02:11.272Z,22.40
2024-02-03T01:04:38.352Z,23.58
2024-02-03T01:07:05.355Z,24.10
2024-02-03T01:09:32.494Z,22.35
2024-02-03T01:12:00.128Z,23.98
2024-02-03T01:14:27.193Z,22.95
2024-02-03T01:16:54.209Z,25.15
2024-02-03T01:19:21.991Z,24.23
2024-02-03T01:21:49.094Z,25.52
2024-02-03T01:24:16.132Z,24.35
2024-02-03T01:26:43.125Z,23.50
2024-02-03T01:29:10.132Z,24.67
2024-02-03T01:31:37.743Z,24.95
2024-02-03T01:34:04.920Z,24.95
2024-02-03T01:36:32.551Z,24.20
2024-02-03T01:38:59.649Z,25.38
2024-02-03T01:41:28.417Z,25.55
2024-02-03T01:43:55.493Z,25.58
2024-02-03T01:46:22.953Z,25.58
2024-02-03T01:48:50.256Z,25.10
2024-02-03T01:51:20.155Z,25.38
2024-02-03T01:53:48.563Z,26.45
2024-02-03T01:56:20.195Z,26.77
2024-02-03T01:58:47.671Z,26.38
2024-02-03T02:01:16.555Z,29.08
2024-02-03T02:03:45.535Z,27.60
2024-02-03T02:06:12.838Z,29.27
2024-02-03T02:08:40.561Z,30.05
2024-02-03T02:11:07.720Z,30.42
2024-02-03T02:13:34.987Z,29.45
2024-02-03T02:16:02.434Z,27.70
2024-02-03T02:18:29.755Z,27.50
2024-02-03T02:20:57.162Z,28.52
2024-02-03T02:23:24.185Z,29.42
2024-02-03T02:25:51.234Z,28.00
2024-02-03T02:28:18.265Z,28.85
2024-02-03T02:30:45.412Z,27.40
2024-02-03T02:33:13.489Z,27.27
2024-02-03T02:35:40.643Z,27.45
2024-02-03T02:38:07.691Z,25.05
2024-02-03T02:40:34.882Z,26.90
2024-02-03T02:43:02.622Z,27.17
2024-02-03T02:45:29.628Z,26.90
2024-02-03T02:47:56.700Z,26.65
2024-02-03T02:50:23.870Z,27.15
2024-02-03T02:52:50.857Z,25.27
2024-02-03T02:55:18.096Z,25.55
2024-02-03T02:57:45.349Z,25.75
2024-02-03T03:00:13.193Z,26.95
2024-02-03T03:02:40.213Z,27.35
2024-02-03T03:05:09.432Z,26.00
2024-02-03T03:07:38.072Z,25.87
2024-02-03T03:10:05.318Z,26.13
2024-02-03T03:12:32.413Z,27.15
2024-02-03T03:14:59.409Z,26.25
2024-02-03T03:17:26.466Z,25.67
2024-02-03T03:19:53.565Z,25.58
2024-02-03T03:22:20.675Z,25.90
2024-02-03T03:24:47.704Z,25.40
2024-02-03T03:27:14.943Z,26.42
2024-02-03T03:29:43.342Z,25.60
2024-02-03T03:32:10.934Z,26.83
2024-02-03T03:34:37.945Z,26.38
2024-02-03T03:37:05.170Z,27.00
2024-02-03T03:39:32.083Z,24.83
2024-02-03T03:41:59.174Z,25.88
2024-02-03T03:44:26.210Z,24.92
2024-02-03T03:46:53.227Z,25.50
2024-02-03T03:49:20.251Z,24.20
2024-02-03T03:51:47.507Z,25.83
2024-02-03T03:54:14.542Z,25.38
2024-02-03T03:56:41.799Z,26.38
2024-02-03T03:59:21.478Z,26.23
2024-02-03T04:01:50.154Z,27.00
2024-02-03T04:04:19.004Z,28.08
2024-02-03T04:06:46.674Z,28.30
2024-02-03T04:09:14.972Z,26.92
2024-02-03T04:11:42.030Z,29.85
2024-02-03T04:14:09.495Z,28.95
2024-02-03T04:16:36.686Z,29.38
2024-02-03T04:19:03.959Z,28.67
2024-02-03T04:21:32.634Z,28.77
2024-02-03T04:23:59.682Z,27.52
2024-02-03T04:26:26.680Z,27.90
2024-02-03T04:28:53.521Z,27.17
2024-02-03T04:31:20.747Z,27.98
2024-02-03T04:33:47.776Z,28.52
2024-02-03T04:36:14.904Z,28.58
2024-02-03T04:38:41.980Z,25.42
2024-02-03T04:41:08.958Z,26.58
2024-02-03T04:43:35.908Z,26.38
2024-02-03T04:46:02.863Z,25.85
2024-02-03T04:48:29.955Z,26.10
2024-02-03T04:50:57.102Z,25.52
2024-02-03T04:53:24.043Z,24.75
2024-02-03T04:55:51.044Z,26.27
2024-02-03T04:58:20.190Z,26.33
2024-02-03T05:00:47.641Z,26.08
2024-02-03T05:03:14.615Z,25.85
2024-02-03T05:05:41.827Z,25.80
2024-02-03T05:08:08.871Z,27.10
2024-02-03T05:10:35.839Z,24.92
2024-02-03T05:13:03.073Z,23.42
2024-02-03T05:15:30.214Z,23.55
2024-02-03T05:17:57.235Z,24.08
2024-02-03T05:20:24.195Z,23.55
2024-02-03T05:22:51.233Z,23.63
2024-02-03T05:25:18.528Z,22.38
2024-02-03T05:27:45.502Z,22.55
2024-02-03T05:30:13.929Z,20.90
2024-02-03T05:32:40.906Z,22.35
2024-02-03T05:35:08.693Z,21.48
2024-02-03T05:37:36.218Z,21.95
2024-02-03T05:40:05.075Z,23.42
2024-02-03T05:42:32.189Z,22.85
2024-02-03T05:45:00.216Z,22.77
2024-02-03T05:47:27.557Z,22.77
2024-02-03T05:49:54.893Z,23.02
2024-02-03T05:52:21.842Z,21.85
2024-02-03T05:54:49.618Z,21.52
2024-02-03T05:57:16.657Z,21.85
2024-02-03T05:59:50.926Z,20.90
2024-02-03T06:02:18.844Z,21.23
2024-02-03T06:04:45.898Z,20.83
2024-02-03T06:07:13.373Z,20.08
2024-02-03T06:09:40.503Z,19.98
2024-02-03T06:12:07.802Z,19.25
2024-02-03T06:14:35.692Z,19.90
2024-02-03T06:17:02.726Z,19.88
2024-02-03T06:19:29.739Z,20.35
2024-02-03T06:21:56.862Z,19.70
2024-02-03T06:24:23.978Z,19.88
2024-02-03T06:26:54.478Z,19.52
2024-02-03T06:29:21.422Z,20.05
2024-02-03T06:31:48.416Z,18.58
2024-02-03T06:34:15.458Z,20.45
2024-02-03T06:36:42.610Z,20.42
2024-02-03T06:39:09.950Z,21.30
2024-02-03T06:41:37.041Z,19.92
2024-02-03T06:44:04.123Z,19.52
2024-02-03T06:46:31.081Z,19.77
2024-02-03T06:48:58.141Z,16.50
2024-02-03T06:51:25.250Z,17.45
2024-02-03T06:53:52.213Z,16.88
2024-02-03T06:56:19.163Z,16.35
2024-02-03T06:58:47.585Z,15.68
2024-02-03T07:01:15.387Z,15.55
2024-02-03T07:03:42.653Z,15.63
2024-02-03T07:06:09.856Z,14.98
2024-02-03T07:08:37.026Z,15.82
2024-02-03T07:11:04.271Z,16.17
2024-02-03T07:13:32.910Z,15.85
2024-02-03T07:16:00.101Z,14.82
2024-02-03T07:18:27.382Z,13.93
2024-02-03T07:20:54.402Z,14.85
2024-02-03T07:23:21.317Z,14.75
2024-02-03T07:25:48.492Z,14.95
2024-02-03T07:28:15.474Z,14.90
2024-02-03T07:30:42.546Z,15.35
2024-02-03T07:33:11.598Z,15.35
2024-02-03T07:35:38.712Z,15.80
2024-02-03T07:38:07.909Z,16.35
2024-02-03T07:40:34.864Z,16.77
2024-02-03T07:43:01.870Z,15.75
2024-02-03T07:45:28.899Z,14.32
2024-02-03T07:47:56.068Z,15.02
2024-02-03T07:50:23.996Z,15.45
2024-02-03T07:52:51.323Z,14.88
2024-02-03T07:55:18.614Z,15.30
2024-02-03T07:57:48.800Z,14.23
2024-02-03T08:00:18.442Z,14.20
2024-02-03T08:02:45.381Z,15.00
2024-02-03T08:05:12.524Z,14.40
2024-02-03T08:07:39.764Z,14.57
2024-02-03T08:10:07.473Z,15.75
2024-02-03T08:12:34.731Z,14.63
2024-02-03T08:15:01.793Z,13.45
2024-02-03T08:17:28.737Z,15.15
2024-02-03T08:19:55.833Z,12.90
2024-02-03T08:22:23.126Z,13.77
2024-02-03T08:24:51.031Z,12.38
2024-02-03T08:27:18.097Z,12.30
2024-02-03T08:29:45.129Z,11.90
2024-02-03T08:32:12.047Z,10.60
2024-02-03T08:34:39.210Z,10.43
2024-02-03T08:37:06.326Z,11.38
2024-02-03T08:44:30.369Z,11.15
2024-02-03T08:46:57.475Z,11.55
2024-02-03T08:49:24.514Z,11.80
2024-02-03T08:51:51.621Z,9.38
2024-02-03T08:54:18.610Z,11.75
2024-02-03T08:56:45.657Z,10.52
2024-02-03T08:59:13.227Z,11.75
2024-02-03T09:01:40.248Z,10.52
2024-02-03T09:04:09.273Z,11.88
2024-02-03T09:06:36.576Z,11.50
2024-02-03T09:09:06.580Z,11.43
2024-02-03T09:14:03.127Z,11.80
2024-02-03T09:16:30.329Z,12.32
2024-02-03T09:18:57.458Z,11.95
2024-02-03T09:21:24.902Z,12.43
2024-02-03T09:23:51.893Z,12.20
2024-02-03T09:26:18.955Z,12.15
2024-02-03T09:28:45.941Z,11.57
2024-02-03T09:31:20.144Z,10.90
2024-02-03T09:33:48.046Z,10.82
2024-02-03T09:36:17.880Z,11.40
2024-02-03T09:38:45.033Z,10.77
2024-02-03T09:41:12.265Z,11.75
2024-02-03T09:43:39.442Z,11.70
2024-02-03T09:46:07.011Z,11.52
2024-02-03T09:48:34.254Z,11.10
2024-02-03T09:51:02.392Z,11.32
2024-02-03T09:53:30.610Z,19.73
2024-02-03T09:56:00.395Z,27.10
2024-02-03T09:58:27.432Z,29.80
2024-02-03T10:00:54.665Z,32.92
2024-02-03T10:03:22.357Z,30.70
2024-02-03T10:06:03.255Z,31.88
2024-02-03T10:08:31.417Z,30.10
2024-02-03T10:10:58.614Z,29.70
2024-02-03T10:13:25.812Z,28.35
2024-02-03T10:16:04.299Z,31.00
2024-02-03T10:18:36.325Z,30.17
2024-02-03T10:21:04.520Z,30.08
2024-02-03T10:23:31.765Z,28.08
2024-02-03T10:26:00.232Z,31.20
2024-02-03T10:28:27.964Z,30.17
2024-02-03T10:31:01.968Z,30.85
2024-02-03T10:33:29.515Z,28.92
2024-02-03T10:35:57.349Z,28.58
2024-02-03T10:38:24.345Z,31.30
2024-02-03T10:40:52.932Z,29.77
2024-02-03T10:43:22.254Z,29.10
2024-02-03T10:45:55.068Z,30.80
2024-02-03T10:48:27.441Z,29.33
2024-02-03T10:50:59.303Z,27.98
2024-02-03T10:53:49.323Z,29.40
2024-02-03T10:58:44.273Z,30.27
2024-02-03T11:01:19.325Z,30.63
2024-02-03T11:03:50.591Z,29.80
2024-02-03T11:06:31.889Z,29.65
2024-02-03T11:09:20.983Z,29.27
2024-02-03T11:11:49.931Z,28.50
2024-02-03T11:14:32.499Z,28.27
2024-02-03T11:17:03.537Z,27.17
2024-02-03T11:19:33.517Z,27.10
2024-02-03T11:22:02.421Z,25.30
2024-02-03T11:24:30.808Z,25.95
2024-02-03T11:27:08.739Z,27.52
2024-02-03T11:29:37.513Z,27.70
2024-02-03T11:32:06.668Z,25.73
2024-02-03T11:34:35.928Z,24.67
2024-02-03T11:37:04.088Z,26.80
2024-02-03T11:39:36.221Z,25.15
2024-02-03T11:42:04.526Z,26.88
2024-02-03T11:44:50.520Z,24.95
2024-02-03T11:47:21.083Z,25.65
2024-02-03T11:49:48.538Z,26.38
2024-02-03T11:52:19.048Z,26.02
2024-02-03T11:54:46.991Z,24.50
2024-02-03T11:57:16.311Z,24.33
2024-02-03T11:59:43.819Z,23.90
2024-02-03T12:02:12.706Z,24.13
2024-02-03T12:04:39.882Z,24.23
2024-02-03T12:07:07.234Z,23.95
2024-02-03T12:09:34.971Z,24.10
2024-02-03T12:12:01.951Z,23.40
2024-02-03T12:14:30.877Z,23.65
2024-02-03T12:16:59.067Z,22.85
2024-02-03T12:19:27.928Z,22.85
2024-02-03T12:21:56.699Z,25.17
2024-02-03T12:24:23.925Z,24.38
2024-02-03T12:26:51.094Z,24.98
2024-02-03T12:29:18.645Z,23.45
2024-02-03T12:31:45.579Z,22.02
2024-02-03T12:34:12.892Z,24.85
2024-02-03T12:36:40.107Z,24.60
2024-02-03T12:39:07.334Z,23.23
2024-02-03T12:41:34.507Z,22.83
2024-02-03T12:44:01.658Z,22.70
2024-02-03T12:46:28.859Z,23.08
2024-02-03T12:48:56.361Z,21.70
2024-02-03T12:51:23.706Z,22.90
2024-02-03T12:53:51.717Z,22.90
2024-02-03T12:56:19.570Z,21.08
2024-02-03T12:58:48.607Z,21.13
2024-02-03T13:01:15.645Z,19.60
2024-02-03T13:03:42.755Z,21.85
2024-02-03T13:06:10.409Z,21.52
2024-02-03T13:08:37.437Z,21.63
2024-02-03T13:11:06.038Z,21.05
2024-02-03T13:13:32.971Z,19.58
2024-02-03T13:16:00.028Z,20.92
2024-02-03T13:18:27.370Z,20.45
2024-02-03T13:20:54.432Z,19.98
2024-02-03T13:23:21.368Z,19.48
2024-02-03T13:25:49.095Z,19.13
2024-02-03T13:28:16.129Z,18.42
2024-02-03T13:30:43.079Z,18.45
2024-02-03T13:33:11.639Z,19.00
2024-02-03T13:35:38.962Z,17.85
2024-02-03T13:38:06.081Z,18.42
2024-02-03T13:40:33.877Z,18.83
2024-02-03T13:43:02.449Z,18.35
2024-02-03T13:45:32.536Z,17.73
2024-02-03T13:47:59.890Z,18.02
2024-02-03T13:50:26.933Z,18.90
2024-02-03T13:55:24.982Z,18.98
2024-02-03T13:57:52.260Z,17.73
2024-02-03T14:00:19.522Z,17.23
2024-02-03T14:02:46.593Z,19.27
2024-02-03T14:05:14.140Z,17.35
2024-02-03T14:07:41.158Z,18.65
2024-02-03T14:10:08.522Z,18.75
2024-02-03T14:12:35.535Z,18.48
2024-02-03T14:15:03.013Z,19.35
2024-02-03T14:17:30.751Z,19.48
2024-02-03T14:19:57.934Z,18.05
2024-02-03T14:22:25.009Z,17.88
2024-02-03T14:24:52.039Z,17.65
2024-02-03T14:27:19.092Z,18.05
2024-02-03T14:29:46.147Z,19.75
2024-02-03T14:34:46.476Z,20.15
2024-02-03T14:37:13.699Z,20.20
2024-02-03T14:39:40.619Z,19.98
2024-02-03T14:42:10.865Z,20.60
2024-02-03T14:44:38.861Z,22.20
2024-02-03T14:47:06.314Z,21.83
2024-02-03T14:49:33.432Z,18.10
2024-02-03T14:52:00.590Z,18.70
2024-02-03T14:54:27.823Z,18.27
2024-02-03T14:56:56.795Z,19.20
2024-02-03T14:59:25.175Z,19.95
2024-02-03T15:01:52.167Z,21.27
2024-02-03T15:04:19.442Z,26.88
2024-02-03T15:06:46.970Z,25.95
2024-02-03T15:09:14.084Z,31.67
2024-02-03T15:11:41.262Z,25.88
2024-02-03T15:14:08.659Z,22.45
2024-02-03T15:16:35.531Z,21.23
2024-02-03T15:19:02.738Z,22.38
2024-02-03T15:21:33.324Z,20.75
2024-02-03T15:24:00.514Z,18.73
2024-02-03T15:26:27.484Z,17.80
2024-02-03T15:28:54.837Z,17.23
2024-02-03T15:31:22.077Z,18.88
2024-02-03T15:33:49.455Z,20.38
2024-02-03T15:36:17.475Z,21.10
2024-02-03T15:38:44.674Z,20.80
2024-02-03T15:41:11.840Z,21.60
2024-02-03T15:43:40.721Z,21.48
2024-02-03T15:46:08.375Z,19.90
2024-02-03T15:48:35.662Z,18.77
2024-02-03T15:51:02.693Z,18.95
2024-02-03T15:53:29.698Z,19.10
2024-02-03T15:55:57.064Z,19.63
2024-02-03T15:58:26.294Z,19.48
2024-02-03T16:01:00.091Z,21.65
2024-02-03T16:03:27.447Z,19.10
2024-02-03T16:05:54.672Z,18.63
2024-02-03T16:08:23.115Z,19.52
2024-02-03T16:10:50.571Z,18.88
2024-02-03T16:13:17.882Z,19.65
2024-02-03T16:15:47.371Z,20.30
2024-02-03T16:18:16.065Z,19.70
2024-02-03T16:20:43.591Z,19.83
2024-02-03T16:23:13.724Z,20.80
2024-02-03T16:25:40.913Z,20.58
2024-02-03T16:28:08.679Z,20.95
2024-02-03T16:30:36.225Z,20.92
2024-02-03T16:33:03.548Z,20.70
2024-02-03T16:35:30.826Z,22.38
2024-02-03T16:37:58.829Z,22.08
2024-02-03T16:40:25.886Z,22.38
2024-02-03T16:42:52.825Z,21.05
2024-02-03T16:45:19.894Z,21.52
2024-02-03T16:47:47.197Z,22.38
2024-02-03T16:50:14.268Z,22.67
2024-02-03T16:52:41.228Z,23.00
2024-02-03T16:55:08.738Z,28.88
2024-02-03T16:57:37.618Z,34.50
2024-02-03T17:00:07.796Z,34.60
2024-02-03T17:02:35.082Z,35.42
2024-02-03T17:05:02.254Z,25.02
2024-02-03T17:07:30.046Z,21.90
2024-02-03T17:09:57.392Z,23.02
2024-02-03T17:12:24.910Z,22.30
2024-02-03T17:14:52.015Z,26.35
2024-02-03T17:17:19.101Z,23.00
2024-02-03T17:19:48.953Z,23.55
2024-02-03T17:22:16.128Z,23.95
2024-02-03T17:25:03.489Z,23.17
2024-02-03T17:27:31.096Z,24.42
2024-02-03T17:29:58.084Z,23.08
2024-02-03T17:32:26.524Z,23.35
2024-02-03T17:34:53.935Z,25.45
2024-02-03T17:37:21.161Z,24.92
2024-02-03T17:39:48.388Z,23.95
2024-02-03T17:42:15.466Z,22.58
2024-02-03T17:44:45.646Z,22.85
2024-02-03T17:47:13.540Z,23.27
2024-02-03T17:49:40.782Z,23.42
2024-02-03T17:52:14.945Z,23.70
2024-02-03T17:54:42.432Z,23.27
2024-02-03T17:57:10.025Z,23.02
2024-02-03T17:59:38.966Z,23.60
2024-02-03T18:02:12.525Z,26.30
2024-02-03T18:04:39.717Z,28.60
2024-02-03T18:07:07.058Z,31.35
2024-02-03T18:09:34.174Z,29.08
2024-02-03T18:12:01.369Z,30.02
2024-02-03T18:14:28.386Z,30.67
2024-02-03T18:16:55.367Z,27.13
2024-02-03T18:19:22.465Z,29.23
2024-02-03T18:21:52.182Z,31.65
2024-02-03T18:24:19.589Z,32.88
2024-02-03T18:26:46.509Z,37.00
2024-02-03T18:29:13.845Z,31.58
2024-02-03T18:31:40.966Z,31.80
2024-02-03T18:34:08.474Z,30.85
2024-02-03T18:36:35.892Z,32.65
2024-02-03T18:39:03.165Z,32.97
2024-02-03T18:41:30.935Z,32.58
2024-02-03T18:43:58.683Z,32.30
2024-02-03T18:46:28.349Z,33.65
2024-02-03T18:48:58.195Z,32.90
2024-02-03T18:51:25.855Z,33.60
2024-02-03T18:53:52.946Z,33.03
2024-02-03T18:56:24.209Z,32.88
2024-02-03T18:58:51.959Z,30.58
2024-02-03T19:01:19.654Z,30.58
2024-02-03T19:03:49.413Z,31.92
2024-02-03T19:06:17.093Z,31.40
2024-02-03T19:08:44.117Z,31.77
2024-02-03T19:11:11.173Z,32.22
2024-02-03T19:13:38.303Z,31.52
2024-02-03T19:16:06.200Z,32.65
2024-02-03T19:18:33.287Z,32.20
2024-02-03T19:21:00.509Z,32.70
2024-02-03T19:23:28.255Z,31.90
2024-02-03T19:25:56.655Z,32.63
2024-02-03T19:28:23.589Z,31.38
2024-02-03T19:30:50.750Z,31.95
2024-02-03T19:33:22.240Z,32.22
2024-02-03T19:35:51.412Z,35.05
2024-02-03T19:38:19.587Z,36.17
2024-02-03T19:40:50.272Z,38.72
2024-02-03T19:43:18.693Z,38.38
2024-02-03T19:45:45.812Z,36.95
2024-02-03T19:48:13.129Z,38.40
2024-02-03T19:50:40.410Z,37.40
2024-02-03T19:53:07.953Z,38.50
2024-02-03T19:55:35.176Z,36.78
2024-02-03T19:58:02.365Z,38.10
2024-02-03T20:00:29.615Z,39.97
2024-02-03T20:02:56.678Z,41.65
2024-02-03T20:05:23.726Z,43.15
2024-02-03T20:07:50.921Z,43.92
2024-02-03T20:10:19.402Z,44.40
2024-02-03T20:12:46.655Z,48.65
2024-02-03T20:15:13.869Z,46.40
2024-02-03T20:17:42.051Z,44.85
2024-02-03T20:20:09.546Z,46.05
2024-02-03T20:22:37.280Z,45.25
2024-02-03T20:25:04.784Z,44.15
2024-02-03T20:27:31.974Z,45.25
2024-02-03T20:29:58.950Z,48.08
2024-02-03T20:32:26.129Z,54.78
2024-02-03T20:34:53.202Z,55.88
2024-02-03T20:37:20.317Z,54.92
2024-02-03T20:39:47.260Z,54.97
2024-02-03T20:42:16.751Z,54.55
2024-02-03T20:44:46.687Z,58.13
2024-02-03T20:47:13.945Z,59.92
2024-02-03T20:49:41.141Z,56.25
2024-02-03T20:52:08.461Z,58.75
2024-02-03T20:54:38.800Z,59.05
2024-02-03T20:57:06.043Z,56.35
2024-02-03T20:59:33.184Z,53.55
2024-02-03T21:02:01.788Z,56.17
2024-02-03T21:04:29.099Z,56.85
2024-02-03T21:06:56.498Z,57.83
2024-02-03T21:09:23.950Z,55.22
2024-02-03T21:11:51.090Z,54.50
2024-02-03T21:14:18.330Z,57.00
2024-02-03T21:16:45.340Z,57.60
2024-02-03T21:19:12.566Z,55.58
2024-02-03T21:21:42.970Z,56.92
2024-02-03T21:24:10.139Z,63.42
2024-02-03T21:26:37.160Z,55.80
2024-02-03T21:29:04.786Z,56.00
2024-02-03T21:31:31.812Z,56.25
2024-02-03T21:33:59.663Z,55.67
2024-02-03T21:36:26.846Z,51.53
2024-02-03T21:38:53.872Z,45.55
2024-02-03T21:41:20.869Z,48.03
2024-02-03T21:43:53.353Z,52.08
2024-02-03T21:46:20.851Z,50.97
2024-02-03T21:48:49.919Z,49.33
2024-02-03T21:51:18.052Z,50.13
2024-02-03T21:53:45.405Z,51.45
2024-02-03T21:56:16.695Z,50.22
2024-02-03T21:58:44.481Z,51.05
2024-02-03T22:01:12.280Z,47.05
2024-02-03T22:03:40.928Z,49.00
2024-02-03T22:06:08.529Z,50.65
2024-02-03T22:08:36.064Z,49.75
2024-02-03T22:11:03.076Z,49.28
2024-02-03T22:13:30.229Z,52.08
2024-02-03T22:15:57.211Z,53.15
2024-02-03T22:18:24.414Z,50.75
2024-02-03T22:20:51.612Z,51.97
2024-02-03T22:23:18.688Z,52.00
2024-02-03T22:25:45.676Z,53.15
2024-02-03T22:28:12.874Z,50.92
2024-02-03T22:30:39.862Z,51.78
2024-02-03T22:33:07.134Z,52.22
2024-02-03T22:35:34.215Z,50.60
2024-02-03T22:38:01.318Z,51.50
2024-02-03T22:40:28.339Z,52.58
2024-02-03T22:42:55.433Z,51.30
2024-02-03T22:45:22.463Z,51.20
2024-02-03T22:47:49.652Z,50.35
2024-02-03T22:50:16.960Z,44.72
2024-02-03T22:52:44.368Z,46.47
2024-02-03T22:55:11.631Z,43.30
2024-02-03T22:57:39.315Z,42.17
2024-02-03T23:00:28.971Z,40.72
2024-02-03T23:02:57.824Z,42.10
2024-02-03T23:05:28.123Z,44.40
2024-02-03T23:07:58.107Z,45.10
2024-02-03T23:10:39.364Z,45.97
2024-02-03T23:13:24.130Z,49.60
2024-02-03T23:15:52.854Z,50.45
2024-02-03T23:18:20.042Z,47.47
2024-02-03T23:21:12.784Z,45.58
2024-02-03T23:23:40.084Z,44.45
2024-02-03T23:26:07.232Z,45.53
2024-02-03T23:28:35.264Z,45.33
2024-02-03T23:31:03.543Z,45.67
2024-02-03T23:33:31.242Z,46.85
2024-02-03T23:35:58.382Z,46.60
2024-02-03T23:38:25.887Z,48.72
2024-02-03T23:40:52.879Z,48.10
2024-02-03T23:43:20.684Z,40.95
2024-02-03T23:45:48.222Z,45.60
2024-02-03T23:48:15.445Z,45.08
2024-02-03T23:50:42.443Z,41.78
2024-02-03T23:53:09.466Z,44.05
2024-02-03T23:55:36.707Z,41.65
2024-02-03T23:58:03.973Z,44.05
